Terminal Aerodrome Forecast
Issued by NWS

Home | Current Version | Previous Version | Graphics & Text | Print | Product List | Glossary On
Versions: 1 2 3 4 5 6 7 8 9 10 11 12 13 14 15 16 17 18 19 20
000
FTUS41 KCLE 291730
TAFFDY
TAF
KFDY 291730Z 2918/3018 18005KT P6SM VCSH SCT050 BKN080
     FM292300 13004KT P6SM VCTS BKN040CB OVC100
     FM300700 16002KT 4SM BR VCSH BKN040 OVC080
     FM301500 22005KT 6SM HZ VCSH BKN040=

USA.gov is the U.S. government's official web portal to all federal, state and local government web resources and services.